createdAt,value
2019-03-30T00:00:19.795Z,86.30
2019-03-30T00:02:47.930Z,80.67
2019-03-30T00:05:16.377Z,85.30
2019-03-30T00:07:45.241Z,86.50
2019-03-30T00:10:13.403Z,87.77
2019-03-30T00:12:41.550Z,88.13
2019-03-30T00:15:09.866Z,89.20
2019-03-30T00:17:38.139Z,92.57
2019-03-30T00:20:06.308Z,86.13
2019-03-30T00:22:34.486Z,88.50
2019-03-30T00:25:02.800Z,84.83
2019-03-30T00:27:30.965Z,97.83
2019-03-30T00:29:59.146Z,89.07
2019-03-30T00:32:27.293Z,86.43
2019-03-30T00:34:55.438Z,84.90
2019-03-30T00:37:23.631Z,87.60
2019-03-30T00:39:51.778Z,91.13
2019-03-30T00:42:19.930Z,84.73
2019-03-30T00:44:48.188Z,87.63
2019-03-30T00:47:16.347Z,83.60
2019-03-30T00:49:49.599Z,87.00
2019-03-30T00:52:14.481Z,84.83
2019-03-30T00:54:43.593Z,93.97
2019-03-30T00:57:11.750Z,86.53
2019-03-30T00:59:39.938Z,90.93
2019-03-30T01:02:08.082Z,88.13
2019-03-30T01:04:36.224Z,86.40
2019-03-30T01:07:04.418Z,91.00
2019-03-30T01:09:32.568Z,87.67
2019-03-30T01:12:01.031Z,82.77
2019-03-30T01:14:29.205Z,89.77
2019-03-30T01:16:57.357Z,91.43
2019-03-30T01:19:25.509Z,87.23
2019-03-30T01:21:56.191Z,85.77
2019-03-30T01:24:23.848Z,88.87
2019-03-30T01:26:51.993Z,85.93
2019-03-30T01:29:20.193Z,88.43
2019-03-30T01:31:48.366Z,83.87
2019-03-30T01:34:16.513Z,79.27
2019-03-30T01:36:44.720Z,93.13
2019-03-30T01:39:15.546Z,85.67
2019-03-30T01:41:43.701Z,88.10
2019-03-30T01:44:11.891Z,83.50
2019-03-30T01:46:40.037Z,83.97
2019-03-30T01:49:08.191Z,86.83
2019-03-30T01:51:36.369Z,87.70
2019-03-30T01:54:04.526Z,80.20
2019-03-30T01:56:32.681Z,83.43
2019-03-30T01:59:00.854Z,89.13
2019-03-30T02:01:29.020Z,90.90
2019-03-30T02:03:57.185Z,85.97
2019-03-30T02:06:25.377Z,80.97
2019-03-30T02:08:53.534Z,83.50
2019-03-30T02:11:21.805Z,82.77
2019-03-30T02:13:49.998Z,86.30
2019-03-30T02:16:18.148Z,78.97
2019-03-30T02:18:46.311Z,81.90
2019-03-30T02:21:14.503Z,83.67
2019-03-30T02:23:42.666Z,86.73
2019-03-30T02:26:10.834Z,88.60
2019-03-30T02:28:39.017Z,85.00
2019-03-30T02:31:07.166Z,87.40
2019-03-30T02:33:36.590Z,80.27
2019-03-30T02:36:04.770Z,80.43
2019-03-30T02:38:33.156Z,79.53
2019-03-30T02:41:01.310Z,83.47
2019-03-30T02:43:29.822Z,83.10
2019-03-30T02:45:57.958Z,77.60
2019-03-30T02:48:26.245Z,88.43
2019-03-30T02:50:54.458Z,79.37
2019-03-30T02:53:22.593Z,85.83
2019-03-30T02:55:50.746Z,82.33
2019-03-30T02:58:18.925Z,80.57
2019-03-30T03:00:47.266Z,80.30
2019-03-30T03:03:15.418Z,79.43
2019-03-30T03:05:43.598Z,83.47
2019-03-30T03:08:11.737Z,83.90
2019-03-30T03:10:39.891Z,77.07
2019-03-30T03:13:08.065Z,80.37
2019-03-30T03:15:36.224Z,82.17
2019-03-30T03:18:06.150Z,79.70
2019-03-30T03:20:34.356Z,74.80
2019-03-30T03:23:02.527Z,75.47
2019-03-30T03:25:30.674Z,82.97
2019-03-30T03:27:58.849Z,77.50
2019-03-30T03:30:27.025Z,79.70
2019-03-30T03:32:55.257Z,87.53
2019-03-30T03:35:23.467Z,78.27
2019-03-30T03:37:51.629Z,81.80
2019-03-30T03:40:19.770Z,80.80
2019-03-30T03:42:47.943Z,79.80
2019-03-30T03:45:16.094Z,79.93
2019-03-30T03:47:44.612Z,75.53
2019-03-30T03:50:14.452Z,78.60
2019-03-30T03:52:42.582Z,80.03
2019-03-30T03:55:10.737Z,80.03
2019-03-30T03:57:40.190Z,81.93
2019-03-30T04:00:08.337Z,78.47
2019-03-30T04:02:36.659Z,76.93
2019-03-30T04:05:06.213Z,78.53
2019-03-30T04:07:34.366Z,78.87
2019-03-30T04:10:02.987Z,82.50
2019-03-30T04:12:31.158Z,84.33
2019-03-30T04:14:59.521Z,83.70
2019-03-30T04:17:27.674Z,84.30
2019-03-30T04:19:55.859Z,75.10
2019-03-30T04:22:24.005Z,78.33
2019-03-30T04:24:52.151Z,82.80
2019-03-30T04:27:20.337Z,80.47
2019-03-30T04:29:48.569Z,73.77
2019-03-30T04:32:16.723Z,79.23
2019-03-30T04:34:45.329Z,78.70
2019-03-30T04:37:13.491Z,85.53
2019-03-30T04:39:41.639Z,74.43
2019-03-30T04:42:09.866Z,80.80
2019-03-30T04:44:37.974Z,79.87
2019-03-30T04:47:06.126Z,81.10
2019-03-30T04:49:34.637Z,77.77
2019-03-30T04:52:02.797Z,82.27
2019-03-30T04:54:30.931Z,76.43
2019-03-30T04:56:59.133Z,79.33
2019-03-30T04:59:27.288Z,82.87
2019-03-30T05:01:55.481Z,78.90
2019-03-30T05:04:23.621Z,78.67
2019-03-30T05:06:51.844Z,82.30
2019-03-30T05:09:20.064Z,83.07
2019-03-30T05:11:48.259Z,71.10
2019-03-30T05:14:16.411Z,74.47
2019-03-30T05:16:44.694Z,77.07
2019-03-30T05:19:13.090Z,75.50
2019-03-30T05:21:41.246Z,73.70
2019-03-30T05:24:09.410Z,78.47
2019-03-30T05:26:37.609Z,76.13
2019-03-30T05:29:05.753Z,74.87
2019-03-30T05:31:33.912Z,77.80
2019-03-30T05:34:02.104Z,74.33
2019-03-30T05:36:30.270Z,69.63
2019-03-30T05:38:58.402Z,71.33
2019-03-30T05:41:26.561Z,75.23
2019-03-30T05:43:54.727Z,74.50
2019-03-30T05:46:22.870Z,70.50
2019-03-30T05:48:51.051Z,72.40
2019-03-30T05:51:19.198Z,69.17
2019-03-30T05:53:47.359Z,71.63
2019-03-30T05:56:15.719Z,70.73
2019-03-30T05:58:43.938Z,72.47
2019-03-30T06:01:12.088Z,69.30
2019-03-30T06:03:40.265Z,78.43
2019-03-30T06:06:08.422Z,64.70
2019-03-30T06:08:36.591Z,64.83
2019-03-30T06:11:04.934Z,61.63
2019-03-30T06:13:33.082Z,60.73
2019-03-30T06:16:01.232Z,52.63
2019-03-30T06:18:29.409Z,47.53
2019-03-30T06:20:57.591Z,44.30
2019-03-30T06:23:25.810Z,45.30
2019-03-30T06:25:53.998Z,47.73
2019-03-30T06:28:22.191Z,45.50
2019-03-30T06:30:50.353Z,50.37
2019-03-30T06:33:18.645Z,47.27
2019-03-30T06:35:46.788Z,44.13
2019-03-30T06:38:14.937Z,42.63
2019-03-30T06:40:43.113Z,40.67
2019-03-30T06:43:11.284Z,40.57
2019-03-30T06:45:39.430Z,41.13
2019-03-30T06:48:07.622Z,39.87
2019-03-30T06:50:35.750Z,38.37
2019-03-30T06:53:04.877Z,39.80
2019-03-30T06:55:33.117Z,35.87
2019-03-30T06:58:01.523Z,35.73
2019-03-30T07:00:33.010Z,39.43
2019-03-30T07:03:02.464Z,44.60
2019-03-30T07:05:30.645Z,40.27
2019-03-30T07:07:58.796Z,39.83
2019-03-30T07:10:26.986Z,36.27
2019-03-30T07:12:55.142Z,35.50
2019-03-30T07:15:23.706Z,37.17
2019-03-30T07:17:51.921Z,38.33
2019-03-30T07:20:26.577Z,35.67
2019-03-30T07:22:55.249Z,35.73
2019-03-30T07:25:23.476Z,35.47
2019-03-30T07:27:51.929Z,33.83
2019-03-30T07:30:20.103Z,35.93
2019-03-30T07:32:48.358Z,35.17
2019-03-30T07:35:16.637Z,39.70
2019-03-30T07:37:44.790Z,37.00
2019-03-30T07:40:12.965Z,32.50
2019-03-30T07:42:41.245Z,31.23
2019-03-30T07:45:09.394Z,31.63
2019-03-30T07:47:37.569Z,31.10
2019-03-30T07:50:06.612Z,34.17
2019-03-30T07:52:34.757Z,32.50
2019-03-30T07:55:03.048Z,34.10
2019-03-30T07:57:31.178Z,30.60
2019-03-30T07:59:59.330Z,32.67
2019-03-30T08:02:27.509Z,30.70
2019-03-30T08:04:55.661Z,30.87
2019-03-30T08:07:23.806Z,32.03
2019-03-30T08:09:51.996Z,37.50
2019-03-30T08:12:20.141Z,35.17
2019-03-30T08:14:48.461Z,35.50
2019-03-30T08:17:16.634Z,35.57
2019-03-30T08:19:44.785Z,38.37
2019-03-30T08:22:12.925Z,36.47
2019-03-30T08:24:41.268Z,32.87
2019-03-30T08:27:09.439Z,35.30
2019-03-30T08:29:37.585Z,37.07
2019-03-30T08:32:05.774Z,36.47
2019-03-30T08:34:33.930Z,35.73
2019-03-30T08:37:02.094Z,34.67
2019-03-30T08:39:30.320Z,35.23
2019-03-30T08:41:58.469Z,39.10
2019-03-30T08:44:26.616Z,31.43
2019-03-30T08:46:54.813Z,34.30
2019-03-30T08:49:22.973Z,35.83
2019-03-30T08:51:51.127Z,34.67
2019-03-30T08:54:19.323Z,33.17
2019-03-30T08:56:47.481Z,36.10
2019-03-30T08:59:15.686Z,37.07
2019-03-30T09:01:43.863Z,32.73
2019-03-30T09:04:12.010Z,37.00
2019-03-30T09:06:40.169Z,38.73
2019-03-30T09:09:08.349Z,35.63
2019-03-30T09:11:36.501Z,33.97
2019-03-30T09:14:04.662Z,34.13
2019-03-30T09:16:32.838Z,35.10
2019-03-30T09:19:01.057Z,33.77
2019-03-30T09:21:29.205Z,39.10
2019-03-30T09:24:08.733Z,42.63
2019-03-30T09:26:27.174Z,39.30
2019-03-30T09:28:55.359Z,39.13
2019-03-30T09:31:23.534Z,40.90
2019-03-30T09:33:51.681Z,40.60
2019-03-30T09:36:19.827Z,41.83
2019-03-30T09:38:47.997Z,42.73
2019-03-30T09:41:18.482Z,41.93
2019-03-30T09:43:49.411Z,41.77
2019-03-30T09:46:17.577Z,45.37
2019-03-30T09:48:45.728Z,47.83
2019-03-30T09:51:13.869Z,41.73
2019-03-30T09:53:42.041Z,48.15
2019-03-30T09:56:10.188Z,45.00
2019-03-30T09:58:38.341Z,44.90
2019-03-30T10:01:06.521Z,42.50
2019-03-30T10:03:34.798Z,48.53
2019-03-30T10:06:02.948Z,45.80
2019-03-30T10:08:31.131Z,45.83
2019-03-30T10:10:59.278Z,49.77
2019-03-30T10:13:28.345Z,45.87
2019-03-30T10:15:56.543Z,46.63
2019-03-30T10:18:24.694Z,48.17
2019-03-30T10:20:52.846Z,49.10
2019-03-30T10:23:21.258Z,49.53
2019-03-30T10:25:49.401Z,47.13
2019-03-30T10:28:19.549Z,44.83
2019-03-30T10:30:47.721Z,44.37
2019-03-30T10:33:31.599Z,48.80
2019-03-30T10:36:08.439Z,46.10
2019-03-30T10:38:37.217Z,48.63
2019-03-30T10:41:05.407Z,50.40
2019-03-30T10:43:33.570Z,47.73
2019-03-30T10:46:01.715Z,51.57
2019-03-30T10:48:29.932Z,48.63
2019-03-30T10:50:58.084Z,43.57
2019-03-30T10:53:27.297Z,45.93
2019-03-30T10:55:55.477Z,48.23
2019-03-30T10:58:24.494Z,45.40
2019-03-30T11:00:52.703Z,49.17
2019-03-30T11:03:20.887Z,43.97
2019-03-30T11:05:50.429Z,44.70
2019-03-30T11:08:20.674Z,46.67
2019-03-30T11:10:49.353Z,48.10
2019-03-30T11:13:17.497Z,47.10
2019-03-30T11:15:45.648Z,48.73
2019-03-30T11:18:14.341Z,48.07
2019-03-30T11:20:44.387Z,48.67
2019-03-30T11:23:12.535Z,49.40
2019-03-30T11:25:44.378Z,81.77
2019-03-30T11:28:14.148Z,70.70
2019-03-30T11:30:46.185Z,50.73
2019-03-30T11:33:14.344Z,78.30
2019-03-30T11:35:42.503Z,47.87
2019-03-30T11:38:10.673Z,50.03
2019-03-30T11:40:38.824Z,50.40
2019-03-30T11:43:06.984Z,47.43
2019-03-30T11:45:35.159Z,45.53
2019-03-30T11:48:03.315Z,56.07
2019-03-30T11:50:31.455Z,52.00
2019-03-30T11:52:59.653Z,57.90
2019-03-30T11:55:28.197Z,54.47
2019-03-30T11:57:58.498Z,53.33
2019-03-30T12:00:26.676Z,50.97
2019-03-30T12:02:54.829Z,55.27
2019-03-30T12:05:22.969Z,60.60
2019-03-30T12:07:51.146Z,57.17
2019-03-30T12:10:19.319Z,52.23
2019-03-30T12:12:47.461Z,53.63
2019-03-30T12:15:15.633Z,51.30
2019-03-30T12:17:43.786Z,56.50
2019-03-30T12:20:11.934Z,56.70
2019-03-30T12:22:40.118Z,60.37
2019-03-30T12:25:08.266Z,54.80
2019-03-30T12:27:36.413Z,51.30
2019-03-30T12:30:07.861Z,58.40
2019-03-30T12:32:36.001Z,55.70
2019-03-30T12:35:05.870Z,54.90
2019-03-30T12:37:34.049Z,47.20
2019-03-30T12:40:02.195Z,49.87
2019-03-30T12:42:30.379Z,53.13
2019-03-30T12:44:58.578Z,53.47
2019-03-30T12:47:26.726Z,53.03
2019-03-30T12:49:54.910Z,50.53
2019-03-30T12:52:26.356Z,56.40
2019-03-30T12:54:52.913Z,50.37
2019-03-30T12:57:21.053Z,47.70
2019-03-30T12:59:49.245Z,56.27
2019-03-30T13:02:17.381Z,48.00
2019-03-30T13:04:45.569Z,49.97
2019-03-30T13:07:13.776Z,57.60
2019-03-30T13:09:41.921Z,51.93
2019-03-30T13:12:10.074Z,48.53
2019-03-30T13:14:38.247Z,54.20
2019-03-30T13:17:06.393Z,46.57
2019-03-30T13:19:34.555Z,57.63
2019-03-30T13:22:02.748Z,55.80
2019-03-30T13:24:30.950Z,59.13
2019-03-30T13:26:59.394Z,62.40
2019-03-30T13:29:27.929Z,63.13
2019-03-30T13:31:56.079Z,60.90
2019-03-30T13:34:24.229Z,62.40
2019-03-30T13:36:52.414Z,63.13
2019-03-30T13:39:20.546Z,60.77
2019-03-30T13:41:48.698Z,59.20
2019-03-30T13:44:16.880Z,61.03
2019-03-30T13:46:45.040Z,61.23
2019-03-30T13:49:13.328Z,60.47
2019-03-30T13:51:41.466Z,64.17
2019-03-30T13:54:10.006Z,59.47
2019-03-30T13:56:38.162Z,73.67
2019-03-30T13:59:06.717Z,65.27
2019-03-30T14:01:34.946Z,64.37
2019-03-30T14:04:03.105Z,67.77
2019-03-30T14:06:31.281Z,73.17
2019-03-30T14:08:59.436Z,59.07
2019-03-30T14:11:27.595Z,58.97
2019-03-30T14:13:55.765Z,62.20
2019-03-30T14:16:23.925Z,64.57
2019-03-30T14:18:52.073Z,56.60
2019-03-30T14:21:20.265Z,58.77
2019-03-30T14:23:48.410Z,60.00
2019-03-30T14:26:30.415Z,69.70
2019-03-30T14:28:46.384Z,54.23
2019-03-30T14:31:14.537Z,53.83
2019-03-30T14:33:44.085Z,58.53
2019-03-30T14:36:12.338Z,65.00
2019-03-30T14:38:40.494Z,74.23
2019-03-30T14:41:08.637Z,74.83
2019-03-30T14:43:36.828Z,67.90
2019-03-30T14:46:04.985Z,74.20
2019-03-30T14:48:33.168Z,68.83
2019-03-30T14:51:01.357Z,73.35
2019-03-30T14:53:29.505Z,73.70
2019-03-30T14:55:57.651Z,72.87
2019-03-30T14:58:25.846Z,70.00
2019-03-30T15:00:54.001Z,68.97
2019-03-30T15:03:22.138Z,63.40
2019-03-30T15:05:50.337Z,61.47
2019-03-30T15:08:18.498Z,64.70
2019-03-30T15:10:46.649Z,63.57
2019-03-30T15:13:14.834Z,60.70
2019-03-30T15:15:42.977Z,60.17
2019-03-30T15:18:11.128Z,64.43
2019-03-30T15:20:39.306Z,56.20
2019-03-30T15:23:07.464Z,63.80
2019-03-30T15:25:35.611Z,64.33
2019-03-30T15:28:07.613Z,68.40
2019-03-30T15:30:36.161Z,63.27
2019-03-30T15:33:04.339Z,63.27
2019-03-30T15:35:32.501Z,64.40
2019-03-30T15:38:00.652Z,65.50
2019-03-30T15:40:28.797Z,66.13
2019-03-30T15:42:56.973Z,59.97
2019-03-30T15:45:25.115Z,59.70
2019-03-30T15:47:53.366Z,58.07
2019-03-30T15:50:21.548Z,58.40
2019-03-30T15:52:49.711Z,61.63
2019-03-30T15:55:17.866Z,59.03
2019-03-30T15:57:46.042Z,56.63
2019-03-30T16:00:15.057Z,53.63
2019-03-30T16:02:43.269Z,50.07
2019-03-30T16:05:15.014Z,51.80
2019-03-30T16:07:41.256Z,49.47
2019-03-30T16:10:09.417Z,49.63
2019-03-30T16:12:37.603Z,48.50
2019-03-30T16:15:06.125Z,49.20
2019-03-30T16:17:34.222Z,52.07
2019-03-30T16:20:03.113Z,45.40
2019-03-30T16:22:31.272Z,45.33
2019-03-30T16:24:59.598Z,52.93
2019-03-30T16:27:29.412Z,49.30
2019-03-30T16:29:59.804Z,51.33
2019-03-30T16:32:29.683Z,53.50
2019-03-30T16:34:57.754Z,51.37
2019-03-30T16:37:27.963Z,55.50
2019-03-30T16:39:56.485Z,57.20
2019-03-30T16:42:25.367Z,56.73
2019-03-30T16:44:53.530Z,55.00
2019-03-30T16:47:21.671Z,53.53
2019-03-30T16:49:49.878Z,52.57
2019-03-30T16:52:18.029Z,48.73
2019-03-30T16:54:47.498Z,48.77
2019-03-30T16:57:15.677Z,43.67
2019-03-30T16:59:43.957Z,44.70
2019-03-30T17:02:12.238Z,42.43
2019-03-30T17:04:40.464Z,44.17
2019-03-30T17:07:08.616Z,47.43
2019-03-30T17:09:36.824Z,48.93
2019-03-30T17:12:04.977Z,44.80
2019-03-30T17:14:33.130Z,46.07
2019-03-30T17:17:01.353Z,47.90
2019-03-30T17:19:29.793Z,47.27
2019-03-30T17:21:57.945Z,51.63
2019-03-30T17:24:26.197Z,48.03
2019-03-30T17:26:54.392Z,50.17
2019-03-30T17:29:22.538Z,50.03
2019-03-30T17:31:53.523Z,49.17
2019-03-30T17:34:21.726Z,51.07
2019-03-30T17:36:49.878Z,50.67
2019-03-30T17:39:18.033Z,53.83
2019-03-30T17:41:46.241Z,49.50
2019-03-30T17:44:14.406Z,50.77
2019-03-30T17:46:42.553Z,47.77
2019-03-30T17:49:11.493Z,48.70
2019-03-30T17:51:39.941Z,47.30
2019-03-30T17:54:08.090Z,48.50
2019-03-30T17:56:36.263Z,45.40
2019-03-30T17:59:04.415Z,49.27
2019-03-30T18:01:32.565Z,50.17
2019-03-30T18:04:00.945Z,45.73
2019-03-30T18:06:29.095Z,43.10
2019-03-30T18:08:57.358Z,42.40
2019-03-30T18:11:25.716Z,41.97
2019-03-30T18:13:53.975Z,47.65
2019-03-30T18:16:22.523Z,51.13
2019-03-30T18:18:50.809Z,51.60
2019-03-30T18:21:18.963Z,48.70
2019-03-30T18:23:47.566Z,49.47
2019-03-30T18:26:15.981Z,48.80
2019-03-30T18:28:44.124Z,55.30
2019-03-30T18:31:12.271Z,52.57
2019-03-30T18:33:40.455Z,62.83
2019-03-30T18:36:08.593Z,56.70
2019-03-30T18:38:36.873Z,64.83
2019-03-30T18:41:05.030Z,67.97
2019-03-30T18:43:33.190Z,65.63
2019-03-30T18:46:01.681Z,66.43
2019-03-30T18:48:29.871Z,65.03
2019-03-30T18:50:58.019Z,70.03
2019-03-30T18:53:26.168Z,64.97
2019-03-30T18:55:54.413Z,68.93
2019-03-30T18:58:22.581Z,64.73
2019-03-30T19:00:50.723Z,71.07
2019-03-30T19:03:20.241Z,62.90
2019-03-30T19:05:48.842Z,63.10
2019-03-30T19:08:16.985Z,65.80
2019-03-30T19:10:45.554Z,63.27
2019-03-30T19:13:13.770Z,55.73
2019-03-30T19:15:41.909Z,59.60
2019-03-30T19:18:10.093Z,47.50
2019-03-30T19:20:38.260Z,53.20
2019-03-30T19:23:06.614Z,53.17
2019-03-30T19:25:34.750Z,52.30
2019-03-30T19:28:02.901Z,57.23
2019-03-30T19:30:31.056Z,59.70
2019-03-30T19:32:59.235Z,61.37
2019-03-30T19:35:27.546Z,58.53
2019-03-30T19:37:55.691Z,57.50
2019-03-30T19:40:24.873Z,56.77
2019-03-30T19:42:53.045Z,57.40
2019-03-30T19:45:21.212Z,64.30
2019-03-30T19:47:49.517Z,57.43
2019-03-30T19:50:17.689Z,65.63
2019-03-30T19:52:45.833Z,69.73
2019-03-30T19:55:14.022Z,63.40
2019-03-30T19:57:42.169Z,56.57
2019-03-30T20:00:11.791Z,61.73
2019-03-30T20:02:39.993Z,62.47
2019-03-30T20:05:08.137Z,67.30
2019-03-30T20:07:37.093Z,62.50
2019-03-30T20:10:06.375Z,61.27
2019-03-30T20:12:34.529Z,62.90
2019-03-30T20:15:04.073Z,68.03
2019-03-30T20:17:32.256Z,67.33
2019-03-30T20:20:00.462Z,65.47
2019-03-30T20:22:28.598Z,64.70
2019-03-30T20:24:56.780Z,65.83
2019-03-30T20:27:24.925Z,69.53
2019-03-30T20:29:53.069Z,69.63
2019-03-30T20:32:22.295Z,65.77
2019-03-30T20:34:50.454Z,71.90
2019-03-30T20:37:18.592Z,71.90
2019-03-30T20:39:46.973Z,69.00
2019-03-30T20:42:23.840Z,69.63
2019-03-30T20:44:52.101Z,76.30
2019-03-30T20:47:20.265Z,71.97
2019-03-30T20:49:48.415Z,71.93
2019-03-30T20:52:16.573Z,79.03
2019-03-30T20:54:44.721Z,72.00
2019-03-30T20:57:12.870Z,76.03
2019-03-30T20:59:41.083Z,79.23
2019-03-30T21:02:09.228Z,76.40
2019-03-30T21:04:37.483Z,79.30
2019-03-30T21:07:05.670Z,80.87
2019-03-30T21:09:33.821Z,81.93
2019-03-30T21:12:02.001Z,79.10
2019-03-30T21:14:30.181Z,81.47
2019-03-30T21:16:58.326Z,86.47
2019-03-30T21:19:26.471Z,81.90
2019-03-30T21:21:54.663Z,84.97
2019-03-30T21:24:23.129Z,91.53
2019-03-30T21:26:51.273Z,93.23
2019-03-30T21:29:19.441Z,88.60
2019-03-30T21:31:49.221Z,84.90
2019-03-30T21:34:17.402Z,86.90
2019-03-30T21:36:45.585Z,84.60
2019-03-30T21:39:13.730Z,83.03
2019-03-30T21:41:41.881Z,87.47
2019-03-30T21:44:21.361Z,89.53
2019-03-30T21:46:39.859Z,94.27
2019-03-30T21:49:08.021Z,88.77
2019-03-30T21:51:36.202Z,94.83
2019-03-30T21:54:04.344Z,90.57
2019-03-30T21:56:32.490Z,91.90
2019-03-30T21:59:00.665Z,94.87
2019-03-30T22:01:28.813Z,91.53
2019-03-30T22:03:56.963Z,100.40
2019-03-30T22:06:25.145Z,88.63
2019-03-30T22:08:53.309Z,96.63
2019-03-30T22:11:21.450Z,94.03
2019-03-30T22:13:49.629Z,101.93
2019-03-30T22:16:17.774Z,100.20
2019-03-30T22:18:45.923Z,94.57
2019-03-30T22:21:14.096Z,93.50
2019-03-30T22:23:42.237Z,95.13
2019-03-30T22:26:10.390Z,94.80
2019-03-30T22:28:38.574Z,98.73
2019-03-30T22:31:07.010Z,100.63
2019-03-30T22:33:35.161Z,100.20
2019-03-30T22:36:03.347Z,94.47
2019-03-30T22:38:31.584Z,107.73
2019-03-30T22:40:59.672Z,107.63
2019-03-30T22:43:27.849Z,99.73
2019-03-30T22:45:55.998Z,105.40
2019-03-30T22:48:24.145Z,100.33
2019-03-30T22:50:52.325Z,105.73
2019-03-30T22:53:20.476Z,109.33
2019-03-30T22:55:48.639Z,107.67
2019-03-30T22:58:16.801Z,114.70
2019-03-30T23:00:46.590Z,126.63
2019-03-30T23:03:14.744Z,111.43
2019-03-30T23:05:42.924Z,111.47
2019-03-30T23:08:11.069Z,120.77
2019-03-30T23:10:39.222Z,115.70
2019-03-30T23:13:07.402Z,113.90
2019-03-30T23:15:35.553Z,120.67
2019-03-30T23:18:03.894Z,117.83
2019-03-30T23:20:32.072Z,119.70
2019-03-30T23:23:00.226Z,117.53
2019-03-30T23:25:28.382Z,127.33
2019-03-30T23:27:56.741Z,124.63
2019-03-30T23:30:25.186Z,120.30
2019-03-30T23:32:53.334Z,117.67
2019-03-30T23:35:21.509Z,121.47
2019-03-30T23:37:49.661Z,128.00
2019-03-30T23:40:17.869Z,129.13
2019-03-30T23:42:46.055Z,126.70
2019-03-30T23:45:14.205Z,133.67
2019-03-30T23:47:42.349Z,129.60
2019-03-30T23:50:10.533Z,121.37
2019-03-30T23:52:40.702Z,126.27
2019-03-30T23:55:08.878Z,125.20
2019-03-30T23:57:37.057Z,132.90
